Time;durP1;ratioP1;P1;durP2;ratioP2;P2;SDS_P1;SDS_P2;PMS_P1;PMS_P2;Temp;Humidity;BMP_temperature;BMP_pressure;BME280_temperature;BME280_humidity;BME280_pressure;Samples;Min_cycle;Max_cycle;Signal;HPM_P1;HPM_P2
2023/11/10 00:01:17;;;;;;;8.47;6.00;;;;;;;7.78;65.81;99643.34;5088469;28;20208;-72
2023/11/10 00:03:47;;;;;;;10.87;6.27;;;;;;;7.75;65.69;99644.19;5088411;28;20204;-71
2023/11/10 00:06:17;;;;;;;9.90;6.50;;;;;;;7.75;66.26;99636.50;5090990;28;20208;-70
2023/11/10 00:08:45;;;;;;;8.67;5.87;;;;;;;7.74;66.23;99640.78;5088176;28;20618;-70
2023/11/10 00:11:14;;;;;;;8.57;6.07;;;;;;;7.72;66.24;99634.78;5090266;28;20223;-71
2023/11/10 00:13:42;;;;;;;10.43;5.77;;;;;;;7.74;66.55;99627.97;5087676;28;20204;-68
2023/11/10 00:16:11;;;;;;;9.13;5.90;;;;;;;7.74;65.88;99635.66;5091240;28;21013;-71
2023/11/10 00:18:40;;;;;;;9.93;5.60;;;;;;;7.73;65.71;99635.66;5068772;28;20236;-71
2023/11/10 00:21:11;;;;;;;14.00;6.60;;;;;;;7.73;65.89;99622.81;5090279;28;20644;-70
2023/11/10 00:23:40;;;;;;;8.63;5.23;;;;;;;7.74;65.72;99627.97;5089701;28;20615;-71
2023/11/10 00:26:08;;;;;;;9.00;6.10;;;;;;;7.75;65.55;99623.69;5087770;28;20211;-71
2023/11/10 00:28:38;;;;;;;9.00;5.87;;;;;;;7.76;65.63;99617.69;5089821;28;20188;-70
2023/11/10 00:31:08;;;;;;;8.60;6.07;;;;;;;7.72;65.86;99611.72;5085597;28;20228;-69
2023/11/10 00:33:37;;;;;;;11.90;6.17;;;;;;;7.74;65.43;99607.44;5085972;28;20626;-66
2023/11/10 00:36:06;;;;;;;8.40;5.50;;;;;;;7.69;65.87;99604.03;5083803;28;20202;-71
2023/11/10 00:38:34;;;;;;;7.23;5.43;;;;;;;7.71;65.79;99607.47;5092444;28;20292;-70
2023/11/10 00:41:03;;;;;;;8.03;5.73;;;;;;;7.72;65.71;99604.03;5091839;28;20620;-70
2023/11/10 00:43:31;;;;;;;8.97;6.13;;;;;;;7.73;65.91;99600.63;5094544;28;20204;-71
2023/11/10 00:46:00;;;;;;;7.83;4.93;;;;;;;7.74;65.57;99593.78;5089578;28;20575;-70
2023/11/10 00:48:28;;;;;;;7.83;5.67;;;;;;;7.76;65.14;99599.72;5090064;28;20215;-71
2023/11/10 00:50:58;;;;;;;10.57;5.50;;;;;;;7.75;65.72;99587.78;5083393;28;20500;-69
2023/11/10 00:53:26;;;;;;;8.60;5.40;;;;;;;7.74;65.48;99592.06;5084442;28;20595;-70
2023/11/10 00:55:54;;;;;;;12.93;5.60;;;;;;;7.75;65.57;99586.06;5089631;28;20239;-68
2023/11/10 00:58:23;;;;;;;8.17;5.30;;;;;;;7.77;65.68;99586.06;5087430;28;20320;-71
2023/11/10 01:00:51;;;;;;;7.73;4.90;;;;;;;7.78;65.22;99581.78;5074944;28;20313;-69
2023/11/10 01:03:20;;;;;;;7.43;4.90;;;;;;;7.78;65.50;99574.09;5094500;28;20223;-73
2023/11/10 01:05:47;;;;;;;7.53;5.07;;;;;;;7.77;65.37;99582.63;5087229;28;20200;-69
2023/11/10 01:08:17;;;;;;;8.57;5.13;;;;;;;7.74;65.49;99574.09;5087256;28;20229;-68
2023/11/10 01:10:45;;;;;;;8.00;4.90;;;;;;;7.75;65.78;99567.25;5091366;28;20208;-68
2023/11/10 01:13:14;;;;;;;7.07;4.93;;;;;;;7.77;65.36;99564.66;5088243;28;20198;-72
2023/11/10 01:15:42;;;;;;;6.77;4.97;;;;;;;7.76;65.62;99563.81;5070829;28;20232;-69
2023/11/10 01:18:10;;;;;;;7.50;4.90;;;;;;;7.78;65.85;99561.25;5102681;28;20327;-67
2023/11/10 01:20:39;;;;;;;8.67;5.23;;;;;;;7.78;66.05;99553.56;5094883;28;20203;-69
2023/11/10 01:23:07;;;;;;;7.00;4.73;;;;;;;7.81;65.41;99551.84;5093278;28;20201;-70
2023/11/10 01:29:24;;;;;;;5.03;4.03;;;;;;;7.87;65.19;99543.22;5091070;28;20203;-70
2023/11/10 01:31:52;;;;;;;7.10;4.57;;;;;;;7.89;65.87;99554.34;5089893;28;20197;-69
2023/11/10 01:34:20;;;;;;;5.47;4.07;;;;;;;7.86;65.86;99549.22;5093368;28;20205;-71
2023/11/10 01:36:48;;;;;;;7.63;4.97;;;;;;;7.85;65.73;99543.25;5097351;28;20260;-69
2023/11/10 01:39:16;;;;;;;7.70;5.00;;;;;;;7.87;65.90;99556.03;5096916;28;20257;-68
2023/11/10 01:41:44;;;;;;;7.13;4.30;;;;;;;7.88;65.69;99545.78;5092480;28;20192;-71
2023/11/10 01:44:13;;;;;;;7.00;4.47;;;;;;;7.92;65.43;99549.19;5094568;28;20295;-69
2023/11/10 01:46:45;;;;;;;7.37;5.03;;;;;;;7.95;65.80;99546.56;5090117;28;20629;-70
2023/11/10 01:49:16;;;;;;;6.50;4.60;;;;;;;7.98;66.17;99549.94;5092347;28;20591;-70
2023/11/10 01:51:45;;;;;;;7.00;4.83;;;;;;;7.99;65.45;99554.25;5083640;28;20273;-71
2023/11/10 01:54:18;;;;;;;6.13;4.00;;;;;;;7.99;66.18;99543.97;5092980;28;20240;-70
2023/11/10 01:56:47;;;;;;;7.37;4.80;;;;;;;7.99;66.10;99551.69;5092552;28;20197;-70
2023/11/10 01:59:16;;;;;;;8.47;4.57;;;;;;;7.92;65.82;99538.91;5094824;28;20196;-68
2023/11/10 02:01:46;;;;;;;6.67;4.73;;;;;;;7.95;65.78;99549.13;5091136;28;20321;-70
2023/11/10 02:04:16;;;;;;;9.03;5.03;;;;;;;7.96;66.74;99540.59;5090000;28;20341;-70
2023/11/10 02:06:46;;;;;;;6.00;4.43;;;;;;;7.95;65.72;99533.72;5088776;28;20315;-70
2023/11/10 02:09:15;;;;;;;5.90;4.20;;;;;;;7.94;66.30;99535.44;5094492;28;20211;-72
2023/11/10 02:11:44;;;;;;;6.23;4.20;;;;;;;7.93;66.17;99532.91;5095783;28;20838;-70
2023/11/10 02:14:14;;;;;;;6.30;4.30;;;;;;;7.94;66.37;99524.34;5099665;28;20278;-73
2023/11/10 02:16:42;;;;;;;7.93;4.70;;;;;;;7.96;66.18;99528.59;5094819;28;20292;-70
2023/11/10 02:19:16;;;;;;;6.40;4.37;;;;;;;7.90;66.62;99520.13;5092134;28;20289;-72
2023/11/10 02:21:45;;;;;;;5.70;4.30;;;;;;;7.90;66.16;99520.13;5089888;28;20193;-70
2023/11/10 02:24:15;;;;;;;8.53;4.40;;;;;;;7.84;66.47;99515.03;5089904;28;20228;-70
2023/11/10 02:26:45;;;;;;;5.17;3.80;;;;;;;7.84;67.08;99510.78;5090308;28;20263;-71
2023/11/10 02:29:15;;;;;;;7.03;4.17;;;;;;;7.83;67.27;99505.63;5091119;28;20651;-69
2023/11/10 02:31:43;;;;;;;6.53;4.10;;;;;;;7.81;66.27;99509.94;5089960;28;20220;-67
2023/11/10 02:34:11;;;;;;;7.37;4.47;;;;;;;7.78;66.99;99509.97;5089759;28;20272;-69
2023/11/10 02:36:40;;;;;;;7.00;4.30;;;;;;;7.75;66.88;99504.00;5091386;28;20656;-70
2023/11/10 02:39:09;;;;;;;6.87;3.93;;;;;;;7.77;67.58;99498.88;5090815;28;20228;-71
2023/11/10 02:41:39;;;;;;;5.50;4.13;;;;;;;7.77;67.74;99501.44;5089744;28;20324;-69
2023/11/10 02:44:09;;;;;;;5.80;4.37;;;;;;;7.76;67.76;99497.16;5090343;28;20299;-71
2023/11/10 02:46:38;;;;;;;5.73;4.03;;;;;;;7.77;68.42;99490.31;5095568;28;20251;-70
2023/11/10 02:49:06;;;;;;;5.73;4.10;;;;;;;7.74;67.33;99480.94;5105377;28;20622;-69
2023/11/10 02:51:34;;;;;;;11.87;3.97;;;;;;;7.77;67.66;99492.88;5088568;28;20264;-68
2023/11/10 02:54:03;;;;;;;5.37;3.83;;;;;;;7.79;67.29;99491.16;5090815;28;20216;-68
2023/11/10 02:56:31;;;;;;;6.73;4.10;;;;;;;7.74;68.02;99494.59;5085150;28;20292;-72
2023/11/10 02:58:59;;;;;;;6.00;4.33;;;;;;;7.74;67.37;99492.03;5094151;28;20216;-70
2023/11/10 03:01:29;;;;;;;5.73;3.90;;;;;;;7.74;68.41;99489.47;5087951;28;20200;-67
2023/11/10 03:03:57;;;;;;;6.50;4.60;;;;;;;7.75;68.38;99492.88;5090404;28;20208;-70
2023/11/10 03:06:26;;;;;;;5.20;4.00;;;;;;;7.78;68.29;99489.47;5089751;28;20208;-68
2023/11/10 03:08:54;;;;;;;7.37;4.23;;;;;;;7.79;68.09;99497.13;5092184;28;20197;-69
2023/11/10 03:11:24;;;;;;;7.13;4.07;;;;;;;7.84;67.33;99504.78;5092083;28;20216;-71
2023/11/10 03:13:54;;;;;;;5.73;3.80;;;;;;;7.85;68.14;99493.66;5091075;28;20706;-69
2023/11/10 03:16:23;;;;;;;6.57;4.30;;;;;;;7.88;67.35;99486.78;5092373;28;20219;-70
2023/11/10 03:18:53;;;;;;;8.47;4.40;;;;;;;7.92;68.03;99492.75;5088710;28;20246;-68
2023/11/10 03:21:22;;;;;;;6.00;3.93;;;;;;;7.92;67.59;99491.03;5088769;28;20204;-68
2023/11/10 03:23:51;;;;;;;3.87;3.47;;;;;;;7.91;67.63;99480.75;5088453;28;20270;-68
2023/11/10 03:26:19;;;;;;;6.93;4.10;;;;;;;7.91;67.65;99491.03;5097154;28;20230;-68
2023/11/10 03:28:47;;;;;;;5.93;3.43;;;;;;;7.86;68.24;99487.66;5089447;28;20279;-70
2023/11/10 03:31:16;;;;;;;5.43;3.37;;;;;;;7.81;67.63;99480.03;5091133;28;20716;-69
2023/11/10 03:33:44;;;;;;;6.43;4.20;;;;;;;7.80;67.96;99492.84;5089292;28;20292;-68
2023/11/10 03:36:14;;;;;;;5.03;3.60;;;;;;;7.75;68.26;99486.03;5090737;28;20215;-69
2023/11/10 03:38:44;;;;;;;5.37;3.63;;;;;;;7.72;68.06;99486.06;5089418;28;20248;-70
2023/11/10 03:41:13;;;;;;;4.60;3.33;;;;;;;7.72;68.67;99491.19;5089325;28;20663;-69
2023/11/10 03:43:41;;;;;;;6.80;3.43;;;;;;;7.70;68.85;99481.84;5093801;28;20666;-70
2023/11/10 03:46:10;;;;;;;5.80;3.90;;;;;;;7.67;68.77;99475.00;5095589;28;20728;-70
2023/11/10 03:48:40;;;;;;;4.40;3.30;;;;;;;7.70;69.54;99475.00;5089416;28;20200;-69
2023/11/10 03:51:10;;;;;;;5.10;3.43;;;;;;;7.71;69.46;99468.16;5089167;28;20319;-69
2023/11/10 03:53:42;;;;;;;5.17;3.50;;;;;;;7.74;69.20;99468.97;5088852;28;20216;-69
2023/11/10 03:56:10;;;;;;;5.03;3.83;;;;;;;7.74;69.47;99463.84;5086795;28;20201;-69
2023/11/10 03:58:38;;;;;;;6.80;3.97;;;;;;;7.75;68.73;99472.38;5099152;28;20216;-70
2023/11/10 04:01:11;;;;;;;6.63;4.03;;;;;;;7.73;69.08;99467.28;5091818;28;20204;-69
2023/11/10 04:03:40;;;;;;;5.87;3.70;;;;;;;7.74;68.97;99470.69;5090909;28;20228;-71
2023/11/10 04:06:08;;;;;;;3.93;3.20;;;;;;;7.72;69.53;99470.69;5093158;28;20204;-70
2023/11/10 04:08:37;;;;;;;4.13;3.33;;;;;;;7.67;69.90;99457.06;5087854;28;20205;-69
2023/11/10 04:11:06;;;;;;;6.10;3.60;;;;;;;7.72;69.64;99463.00;5093493;28;20197;-71
2023/11/10 04:13:35;;;;;;;5.27;4.07;;;;;;;7.71;69.58;99458.72;5086319;28;20204;-67
2023/11/10 04:16:03;;;;;;;6.30;3.57;;;;;;;7.72;69.83;99449.31;5088505;28;20218;-69
2023/11/10 04:18:31;;;;;;;4.60;3.43;;;;;;;7.75;69.95;99455.28;5092228;28;20244;-68
2023/11/10 04:21:01;;;;;;;4.27;3.53;;;;;;;7.79;69.44;99455.25;5094563;28;20291;-70
2023/11/10 04:23:29;;;;;;;4.23;3.20;;;;;;;7.79;69.86;99450.13;5087432;28;20297;-67
2023/11/10 04:25:57;;;;;;;4.87;3.57;;;;;;;7.81;69.40;99449.25;5091329;28;20205;-68
2023/11/10 04:28:27;;;;;;;4.73;3.50;;;;;;;7.83;69.78;99449.22;5090124;28;20239;-70
2023/11/10 04:30:54;;;;;;;7.03;3.83;;;;;;;7.83;69.60;99444.09;5089369;28;20204;-71
2023/11/10 04:33:23;;;;;;;5.43;3.50;;;;;;;7.82;70.38;99440.69;5089515;28;20212;-69
2023/11/10 04:35:51;;;;;;;3.63;3.30;;;;;;;7.82;69.89;99445.81;5094378;28;20204;-68
2023/11/10 04:38:19;;;;;;;3.80;3.33;;;;;;;7.81;69.56;99435.56;5093112;28;20711;-70
2023/11/10 04:40:47;;;;;;;5.27;3.50;;;;;;;7.81;70.04;99428.72;5097254;28;20656;-69
2023/11/10 04:43:15;;;;;;;6.73;3.43;;;;;;;7.84;69.99;99438.97;5092557;28;20212;-68
2023/11/10 04:45:44;;;;;;;5.03;3.27;;;;;;;7.87;69.58;99444.03;5100841;28;20635;-69
2023/11/10 04:48:13;;;;;;;3.10;2.80;;;;;;;7.88;69.68;99445.75;5096266;28;20270;-69
2023/11/10 04:50:41;;;;;;;3.27;2.90;;;;;;;7.87;70.02;99438.91;5094048;28;20666;-69
2023/11/10 04:53:09;;;;;;;6.33;3.83;;;;;;;7.91;69.35;99449.97;5085830;28;20223;-63
2023/11/10 04:55:39;;;;;;;4.83;3.43;;;;;;;7.93;69.77;99450.84;5095997;28;20208;-64
2023/11/10 04:58:08;;;;;;;8.40;3.90;;;;;;;7.91;69.88;99438.00;5094576;28;20265;-68
2023/11/10 05:00:35;;;;;;;3.60;3.10;;;;;;;7.91;69.70;99449.97;5091617;28;20689;-65
2023/11/10 05:03:06;;;;;;;5.43;3.37;;;;;;;7.91;69.89;99437.16;5103095;28;20212;-66
2023/11/10 05:05:36;;;;;;;6.43;3.50;;;;;;;7.90;69.57;99432.91;5091834;28;20197;-64
2023/11/10 05:08:05;;;;;;;4.57;3.27;;;;;;;7.92;69.87;99438.88;5099003;28;20197;-63
2023/11/10 05:10:33;;;;;;;5.80;3.80;;;;;;;7.93;70.08;99432.88;5089601;28;20280;-64
2023/11/10 05:13:01;;;;;;;5.57;3.67;;;;;;;7.94;70.13;99440.53;5099082;28;20196;-67
2023/11/10 05:15:29;;;;;;;4.77;3.13;;;;;;;7.92;70.47;99433.75;5089788;28;20193;-69
2023/11/10 05:17:58;;;;;;;4.03;3.03;;;;;;;7.95;70.66;99432.00;5093046;28;20233;-70
2023/11/10 05:20:31;;;;;;;4.60;3.73;;;;;;;7.96;70.24;99422.59;5094534;28;20217;-71
2023/11/10 05:22:59;;;;;;;5.50;3.50;;;;;;;7.98;69.92;99439.63;5096070;28;20656;-68
2023/11/10 05:25:28;;;;;;;4.40;3.10;;;;;;;7.99;69.67;99435.38;5091587;28;20200;-68
2023/11/10 05:27:57;;;;;;;6.93;3.70;;;;;;;7.97;69.91;99434.53;5090532;28;20678;-70
2023/11/10 05:30:30;;;;;;;3.77;3.10;;;;;;;7.99;69.57;99427.69;5091863;28;20200;-71
2023/11/10 05:32:58;;;;;;;6.90;3.77;;;;;;;8.01;69.36;99427.66;5095889;28;20599;-72
2023/11/10 05:35:30;;;;;;;5.40;3.40;;;;;;;7.98;69.29;99420.84;5097666;28;20246;-72
2023/11/10 05:37:58;;;;;;;4.23;3.53;;;;;;;7.99;69.94;99427.69;5091637;28;20604;-69
2023/11/10 05:40:29;;;;;;;4.90;3.23;;;;;;;8.01;69.85;99423.38;5090298;28;20217;-69
2023/11/10 05:42:58;;;;;;;4.70;3.57;;;;;;;8.00;70.41;99424.25;5098704;28;20689;-71
2023/11/10 05:45:26;;;;;;;6.10;3.63;;;;;;;8.02;70.33;99421.66;5090841;28;20208;-70
2023/11/10 05:47:55;;;;;;;4.33;3.30;;;;;;;7.97;70.29;99409.72;5094219;28;20216;-72
2023/11/10 05:50:23;;;;;;;6.47;3.60;;;;;;;7.93;70.07;99417.47;5097411;28;20540;-72
2023/11/10 05:52:52;;;;;;;4.30;3.50;;;;;;;7.92;70.45;99420.94;5092070;28;20664;-70
2023/11/10 05:55:20;;;;;;;4.70;3.37;;;;;;;7.95;70.33;99423.44;5088328;28;20212;-71
2023/11/10 05:57:49;;;;;;;5.87;3.43;;;;;;;7.96;70.31;99422.59;5093661;28;20208;-72
2023/11/10 06:00:18;;;;;;;6.93;3.37;;;;;;;7.97;69.93;99422.56;5090239;28;20244;-71
2023/11/10 06:02:47;;;;;;;7.70;3.60;;;;;;;8.01;70.51;99425.94;5072149;28;20204;-71
2023/11/10 06:05:19;;;;;;;5.50;3.13;;;;;;;8.02;70.62;99426.78;5089041;28;20323;-70
2023/11/10 06:07:47;;;;;;;3.83;2.83;;;;;;;8.02;70.43;99422.50;5094904;28;20201;-66
2023/11/10 06:10:18;;;;;;;3.90;3.50;;;;;;;8.03;70.37;99421.66;5097784;28;20205;-67
2023/11/10 06:12:49;;;;;;;4.37;3.40;;;;;;;8.05;69.95;99429.31;5091211;28;20624;-67
2023/11/10 06:15:19;;;;;;;8.13;3.63;;;;;;;8.08;70.28;99426.72;5089106;28;20751;-70
2023/11/10 06:17:50;;;;;;;3.20;2.87;;;;;;;8.11;69.71;99419.84;5087036;28;20318;-69
2023/11/10 06:20:20;;;;;;;5.63;3.40;;;;;;;8.12;69.95;99421.53;5093905;28;20236;-71
2023/11/10 06:22:48;;;;;;;3.40;2.80;;;;;;;8.14;69.00;99422.38;5093867;28;20207;-67
2023/11/10 06:25:18;;;;;;;4.80;3.17;;;;;;;8.16;69.43;99418.06;5090627;28;20671;-68
2023/11/10 06:27:46;;;;;;;6.70;3.07;;;;;;;8.19;69.03;99420.59;5093670;28;20245;-69
2023/11/10 06:30:15;;;;;;;5.10;3.70;;;;;;;8.21;69.14;99431.72;5097456;28;20571;-69
2023/11/10 06:32:43;;;;;;;4.63;3.23;;;;;;;8.23;69.41;99431.69;5086226;28;20193;-69
2023/11/10 06:35:11;;;;;;;3.63;3.30;;;;;;;8.24;69.31;99429.06;5084877;28;20262;-69
2023/11/10 06:37:40;;;;;;;3.63;3.23;;;;;;;8.32;68.84;99435.84;5092599;28;20710;-67
2023/11/10 06:40:09;;;;;;;3.90;3.50;;;;;;;8.33;68.98;99430.69;5098000;28;20211;-68
2023/11/10 06:42:39;;;;;;;4.47;3.00;;;;;;;8.34;68.21;99423.84;5088827;28;20204;-68
2023/11/10 06:45:09;;;;;;;4.87;3.07;;;;;;;8.34;68.73;99424.69;5096112;28;20201;-67
2023/11/10 06:47:38;;;;;;;5.30;3.20;;;;;;;8.38;68.32;99431.50;5087960;28;20577;-68
2023/11/10 06:50:07;;;;;;;4.30;2.80;;;;;;;8.42;68.95;99424.63;5093917;28;20571;-70
2023/11/10 06:52:35;;;;;;;6.00;3.27;;;;;;;8.48;68.97;99431.41;5102100;28;20196;-67
2023/11/10 06:55:03;;;;;;;4.00;2.50;;;;;;;8.50;68.48;99427.94;5090480;28;20240;-67
2023/11/10 06:57:31;;;;;;;3.97;2.83;;;;;;;8.51;68.72;99419.38;5092402;28;20522;-70
2023/11/10 07:00:03;;;;;;;4.10;2.73;;;;;;;8.52;68.17;99412.53;5091168;28;20225;-66
2023/11/10 07:02:33;;;;;;;3.73;3.33;;;;;;;8.55;68.44;99421.03;5095144;28;20261;-68
2023/11/10 07:05:01;;;;;;;3.30;2.77;;;;;;;8.61;67.88;99418.38;5092215;28;20201;-66
2023/11/10 07:07:32;;;;;;;6.47;2.87;;;;;;;8.66;67.77;99421.75;5093697;28;20200;-67
2023/11/10 07:10:00;;;;;;;6.27;3.23;;;;;;;8.68;67.86;99431.97;5098528;28;20201;-66
2023/11/10 07:12:28;;;;;;;4.60;3.33;;;;;;;8.73;67.76;99431.91;5084220;28;20209;-67
2023/11/10 07:14:58;;;;;;;6.47;2.87;;;;;;;8.76;66.84;99427.56;5093298;28;20211;-67
2023/11/10 07:17:28;;;;;;;6.43;3.20;;;;;;;8.81;67.46;99424.97;5089225;28;20271;-69
2023/11/10 07:19:56;;;;;;;4.57;3.07;;;;;;;8.84;66.90;99430.06;5086811;28;20694;-66
2023/11/10 07:22:24;;;;;;;5.63;3.10;;;;;;;8.84;67.07;99432.63;5089661;28;20663;-66
2023/11/10 07:24:52;;;;;;;6.37;3.00;;;;;;;8.86;66.52;99433.44;5089423;28;20204;-67
2023/11/10 07:27:20;;;;;;;5.03;3.20;;;;;;;8.85;66.90;99431.75;5090165;28;20200;-65
2023/11/10 07:29:49;;;;;;;7.27;3.23;;;;;;;8.87;67.08;99430.00;5092538;28;20204;-66
2023/11/10 07:32:18;;;;;;;4.10;3.20;;;;;;;8.90;67.07;99424.81;5093331;28;20200;-65
2023/11/10 07:34:48;;;;;;;5.67;3.23;;;;;;;8.91;66.71;99421.38;5100611;28;20239;-65
2023/11/10 07:37:16;;;;;;;6.23;3.37;;;;;;;8.90;66.53;99427.38;5097024;28;20203;-65
2023/11/10 07:39:44;;;;;;;3.20;2.90;;;;;;;8.90;66.60;99415.38;5091264;28;20295;-66
2023/11/10 07:42:13;;;;;;;5.50;2.97;;;;;;;8.92;66.42;99420.53;5089058;28;20287;-65
2023/11/10 07:44:41;;;;;;;4.30;2.80;;;;;;;8.94;66.45;99416.19;5098607;28;20287;-69
2023/11/10 07:47:11;;;;;;;7.97;3.33;;;;;;;8.99;66.32;99416.16;5094912;28;20553;-66
2023/11/10 07:49:39;;;;;;;4.47;3.27;;;;;;;9.03;66.79;99410.94;5090248;28;20208;-66
2023/11/10 07:52:09;;;;;;;3.60;2.80;;;;;;;9.07;66.70;99407.44;5094095;28;20189;-67
2023/11/10 07:54:37;;;;;;;4.53;3.20;;;;;;;9.12;65.79;99404.78;5098110;28;20295;-67
2023/11/10 07:57:06;;;;;;;3.70;3.10;;;;;;;9.18;65.73;99405.53;5094360;28;20639;-66
2023/11/10 07:59:34;;;;;;;4.83;3.03;;;;;;;9.23;65.57;99404.63;5087486;28;20597;-67
2023/11/10 08:02:02;;;;;;;4.53;2.60;;;;;;;9.27;65.04;99408.81;5091286;28;20228;-67
2023/11/10 08:04:30;;;;;;;3.73;2.63;;;;;;;9.29;65.09;99412.22;5096896;28;20205;-66
2023/11/10 08:06:59;;;;;;;5.10;3.17;;;;;;;9.29;64.92;99415.66;5088620;28;20236;-66
2023/11/10 08:09:28;;;;;;;4.63;2.77;;;;;;;9.30;65.53;99412.19;5091895;28;20208;-68
2023/11/10 08:11:57;;;;;;;3.57;2.53;;;;;;;9.38;65.62;99414.63;5089512;28;20200;-66
2023/11/10 08:14:25;;;;;;;5.93;2.90;;;;;;;9.43;65.04;99410.28;5091574;28;20580;-67
2023/11/10 08:16:54;;;;;;;5.83;3.17;;;;;;;9.49;65.07;99409.31;5089949;28;20691;-66
2023/11/10 08:19:22;;;;;;;5.43;2.80;;;;;;;9.55;64.75;99409.22;5091710;28;20244;-66
2023/11/10 08:21:50;;;;;;;7.70;3.20;;;;;;;9.59;64.80;99416.84;5094995;28;20226;-66
2023/11/10 08:24:18;;;;;;;7.23;2.97;;;;;;;9.64;64.49;99415.03;5095818;28;20647;-67
2023/11/10 08:26:50;;;;;;;6.37;3.23;;;;;;;9.70;63.42;99418.38;5100818;28;20284;-67
2023/11/10 08:29:18;;;;;;;6.53;3.33;;;;;;;9.75;63.76;99424.28;5097328;28;20287;-67
2023/11/10 08:31:48;;;;;;;5.17;3.40;;;;;;;9.78;63.36;99425.06;5089847;28;20274;-67
2023/11/10 08:34:18;;;;;;;5.37;3.07;;;;;;;9.84;63.47;99421.56;5092735;28;20232;-66
2023/11/10 08:36:48;;;;;;;4.03;2.87;;;;;;;9.92;63.62;99422.25;5086585;28;20757;-67
2023/11/10 08:39:18;;;;;;;8.40;3.47;;;;;;;10.00;63.80;99428.09;5092759;28;20599;-62
2023/11/10 08:41:48;;;;;;;5.43;2.70;;;;;;;10.06;63.13;99427.16;5099543;28;20220;-63
2023/11/10 08:44:18;;;;;;;7.67;3.33;;;;;;;10.12;63.05;99422.69;5092272;28;20216;-64
2023/11/10 08:46:47;;;;;;;4.93;3.20;;;;;;;10.24;62.48;99420.78;5091965;28;20205;-63
2023/11/10 08:49:15;;;;;;;5.40;3.60;;;;;;;10.29;62.19;99413.84;5094789;28;20617;-69
2023/11/10 08:51:44;;;;;;;7.17;4.77;;;;;;;10.30;62.02;99410.38;5096757;28;20212;-68
2023/11/10 08:54:12;;;;;;;5.10;2.87;;;;;;;10.32;62.04;99416.34;5092670;28;20674;-64
2023/11/10 08:56:40;;;;;;;4.57;3.10;;;;;;;10.33;61.90;99420.63;5072650;28;20201;-65
2023/11/10 08:59:10;;;;;;;7.53;3.17;;;;;;;10.32;62.14;99416.34;5093687;28;20622;-63
2023/11/10 09:01:40;;;;;;;3.97;2.87;;;;;;;10.40;62.31;99419.63;5091197;28;20680;-67
2023/11/10 09:04:09;;;;;;;5.07;3.10;;;;;;;10.48;61.89;99415.13;5092402;28;20204;-65
2023/11/10 09:06:51;;;;;;;4.73;3.30;;;;;;;10.55;61.76;99415.88;5095879;28;20211;-64
2023/11/10 09:09:21;;;;;;;5.03;3.43;;;;;;;10.58;61.48;99414.06;5094206;28;20208;-63
2023/11/10 09:11:49;;;;;;;5.03;3.43;;;;;;;10.60;61.60;99414.91;5084214;28;20212;-64
2023/11/10 09:14:17;;;;;;;6.27;3.57;;;;;;;10.62;61.19;99422.59;5096901;28;20723;-64
2023/11/10 09:16:46;;;;;;;4.40;3.30;;;;;;;10.65;61.37;99427.66;5091308;28;20216;-65
2023/11/10 09:19:15;;;;;;;5.17;3.00;;;;;;;10.67;61.01;99430.19;5088607;28;20778;-63
2023/11/10 09:21:43;;;;;;;6.13;3.43;;;;;;;10.69;61.48;99428.44;5085425;28;20213;-64
2023/11/10 09:24:11;;;;;;;6.57;3.80;;;;;;;10.67;60.91;99432.78;5090356;28;20655;-63
2023/11/10 09:26:40;;;;;;;5.90;3.67;;;;;;;10.58;61.10;99431.25;5100006;28;20641;-65
2023/11/10 09:29:08;;;;;;;5.97;3.70;;;;;;;10.52;61.43;99421.06;5098807;28;20200;-62
2023/11/10 09:31:38;;;;;;;7.13;3.60;;;;;;;10.47;61.43;99416.03;5090038;28;20197;-64
2023/11/10 09:34:08;;;;;;;6.63;5.33;;;;;;;10.45;61.67;99412.63;5090342;28;20679;-61
2023/11/10 09:36:37;;;;;;;6.50;3.70;;;;;;;10.43;61.74;99405.84;5091152;28;20459;-62
2023/11/10 09:39:05;;;;;;;6.77;3.60;;;;;;;10.43;62.04;99411.81;5092513;28;20246;-63
2023/11/10 09:41:38;;;;;;;6.07;3.60;;;;;;;10.40;62.10;99404.16;5095673;28;20226;-65
2023/11/10 09:44:11;;;;;;;5.00;3.20;;;;;;;10.40;62.01;99399.84;5089696;28;20237;-63
2023/11/10 09:46:41;;;;;;;4.73;3.10;;;;;;;10.38;62.21;99401.63;5088631;28;20240;-65
2023/11/10 09:49:12;;;;;;;4.67;3.53;;;;;;;10.36;62.44;99400.81;5091123;28;20575;-67
2023/11/10 09:51:42;;;;;;;7.93;3.70;;;;;;;10.36;62.66;99397.38;5087396;28;20614;-67
2023/11/10 09:54:11;;;;;;;9.87;4.43;;;;;;;10.33;62.73;99394.88;5092604;28;20196;-67
2023/11/10 09:56:40;;;;;;;8.27;3.80;;;;;;;10.32;62.81;99394.03;5092654;28;20192;-68
2023/11/10 09:59:10;;;;;;;7.20;4.30;;;;;;;10.34;62.99;99393.97;5092656;28;20197;-63
2023/11/10 10:01:38;;;;;;;11.40;4.87;;;;;;;10.37;63.33;99383.63;5089696;28;20738;-65
2023/11/10 10:04:10;;;;;;;7.23;4.13;;;;;;;10.43;63.23;99378.34;5090216;28;20253;-62
2023/11/10 10:06:41;;;;;;;6.00;3.70;;;;;;;10.50;63.44;99379.06;5099760;28;20215;-66
2023/11/10 10:09:10;;;;;;;6.63;4.23;;;;;;;10.53;63.00;99361.81;5093331;28;20648;-65
2023/11/10 10:11:40;;;;;;;3.80;3.40;;;;;;;10.58;62.85;99361.72;5092592;28;20731;-66
2023/11/10 10:14:09;;;;;;;5.23;3.83;;;;;;;10.60;62.26;99350.50;5091154;28;20553;-65
2023/11/10 10:16:37;;;;;;;6.03;4.17;;;;;;;10.64;62.46;99354.69;5089439;28;20204;-68
2023/11/10 10:19:06;;;;;;;5.70;4.33;;;;;;;10.70;62.80;99347.69;5090169;28;20236;-65
2023/11/10 10:21:42;;;;;;;5.07;4.13;;;;;;;10.79;62.63;99348.34;5088938;28;20232;-66
2023/11/10 10:24:10;;;;;;;8.00;4.00;;;;;;;10.89;62.34;99349.78;5092594;28;20231;-66
2023/11/10 10:26:40;;;;;;;5.03;3.13;;;;;;;10.98;62.53;99347.91;5087489;28;20859;-64
2023/11/10 10:29:08;;;;;;;5.27;3.83;;;;;;;10.98;61.92;99341.00;5089557;28;20216;-66
2023/11/10 10:31:37;;;;;;;6.20;3.33;;;;;;;11.08;61.43;99344.19;5089864;28;20267;-64
2023/11/10 10:34:06;;;;;;;6.17;4.00;;;;;;;11.12;61.72;99328.63;5088330;28;20211;-69
2023/11/10 10:36:35;;;;;;;7.40;3.57;;;;;;;11.19;61.59;99336.19;5088396;28;20603;-68
2023/11/10 10:39:10;;;;;;;7.67;3.77;;;;;;;11.25;61.06;99333.44;5086211;28;20269;-68
2023/11/10 10:41:39;;;;;;;9.43;4.00;;;;;;;11.35;61.27;99322.03;5087963;28;20223;-68
2023/11/10 10:44:08;;;;;;;6.03;3.97;;;;;;;11.50;60.75;99325.94;5089722;28;20227;-68
2023/11/10 10:46:38;;;;;;;7.13;4.57;;;;;;;11.60;60.51;99317.06;5088224;28;20314;-66
2023/11/10 10:49:12;;;;;;;7.17;3.77;;;;;;;11.71;60.34;99311.56;5099765;28;20243;-67
2023/11/10 10:51:40;;;;;;;7.50;3.90;;;;;;;11.84;59.74;99310.38;5087646;28;20288;-71
2023/11/10 10:54:10;;;;;;;5.90;3.90;;;;;;;11.96;59.30;99312.59;5093358;28;20538;-66
2023/11/10 10:56:39;;;;;;;5.93;3.70;;;;;;;12.07;58.44;99318.28;5091060;28;20201;-68
2023/11/10 10:59:13;;;;;;;7.27;3.90;;;;;;;12.13;57.87;99317.28;5089548;28;20204;-68
2023/11/10 11:01:43;;;;;;;9.33;3.90;;;;;;;12.12;58.32;99309.59;5077654;28;20203;-66
2023/11/10 11:04:30;;;;;;;6.93;3.90;;;;;;;12.16;58.03;99316.34;5089891;28;20225;-66
2023/11/10 11:07:23;;;;;;;7.33;3.80;;;;;;;12.18;58.06;99312.81;5084550;28;20580;-68
2023/11/10 11:10:08;;;;;;;7.53;3.70;;;;;;;12.20;57.82;99305.03;5093400;28;20295;-69
2023/11/10 11:13:21;;;;;;;5.03;3.80;;;;;;;12.15;57.82;99291.41;5086606;28;20204;-69
2023/11/10 11:16:04;;;;;;;7.70;4.30;;;;;;;12.22;57.57;99295.50;5086600;28;20205;-65
2023/11/10 11:18:55;;;;;;;5.80;3.70;;;;;;;12.21;57.81;99304.13;5093434;28;20452;-67
2023/11/10 11:21:24;;;;;;;6.27;3.63;;;;;;;12.10;57.46;99296.72;5090012;28;20201;-68
2023/11/10 11:23:53;;;;;;;5.87;3.50;;;;;;;12.20;57.41;99302.47;5092109;28;20316;-70
2023/11/10 11:26:24;;;;;;;5.63;3.73;;;;;;;12.16;57.40;99306.03;5093686;28;20197;-70
2023/11/10 11:29:04;;;;;;;4.73;2.93;;;;;;;12.11;57.83;99294.97;5090120;28;20232;-65
2023/11/10 11:31:43;;;;;;;5.47;3.73;;;;;;;12.10;57.93;99299.28;5098501;28;20235;-70
2023/11/10 11:34:14;;;;;;;8.87;4.27;;;;;;;12.15;58.00;99309.47;5088436;28;20202;-71
2023/11/10 11:36:45;;;;;;;8.63;4.00;;;;;;;12.18;58.11;99299.91;5088987;28;20211;-69
2023/11/10 11:39:15;;;;;;;7.63;3.90;;;;;;;12.18;58.09;99296.47;5088097;28;20239;-72
2023/11/10 11:41:50;;;;;;;8.47;3.87;;;;;;;12.22;57.45;99293.75;5083801;28;20211;-75
2023/11/10 11:44:26;;;;;;;7.73;4.17;;;;;;;12.22;58.14;99283.41;5088754;28;20590;-72
2023/11/10 11:46:56;;;;;;;7.70;3.50;;;;;;;12.27;57.53;99280.72;5088870;28;20196;-67
2023/11/10 11:49:26;;;;;;;6.60;4.30;;;;;;;12.36;57.51;99271.81;5090288;28;20271;-67
2023/11/10 11:51:56;;;;;;;12.97;4.53;;;;;;;12.44;57.41;99280.19;5088480;28;20313;-70
2023/11/10 11:54:28;;;;;;;7.27;4.00;;;;;;;12.53;57.23;99280.75;5084878;28;20212;-66